Details From EGLL - London Heathrow
To YBMA - Mount Isa
Flight Number -
Tags Decoded
Created
Modified
Stats Distance 8,198 nm / 15,183 km
Max Altitude 0 ft / 0 m
Waypoints 9
Social Downloads 0
Likes 0
Share VATSIM

Download

Looking for another format? Having issues loading an existing format? Contact us
Advertisement - Login to hide

Notes

Decoded

Route

EGLL LIMAK SUBIS LANBI PT UF FORTA FOLOT YBMA

ID Type Via Altitude Latitude Longitude Leg Dist Tot Dist Heading (true) Name
O EGLL APT - 0 ft / 0 m 51.46477˚ -0.48695˚ - 0 nm - -
LIMAK FIX - 0 ft / 0 m 58.84333˚ 27.47000˚ 1046 nm 1046 nm 54° / 77° -
SUBIS FIX - 0 ft / 0 m 57.96667˚ 61.66667˚ 1065 nm 2112 nm 78° / 107° -
LANBI FIX - 0 ft / 0 m 49.25333˚ 87.48167˚ 1048 nm 3160 nm 109° / 130° -
PT NDB - 0 ft / 0 m 37.19333˚ 104.06833˚ 1021 nm 4182 nm 129° / 140° JINGTAI NDB
UF NDB - 0 ft / 0 m 23.64667˚ 114.33000˚ 970 nm 5152 nm 144° / 149° LONGMEN NDB
FORTA FIX - 0 ft / 0 m 9.37640˚ 124.05362˚ 1022 nm 6174 nm 145° / 148° -
FOLOT FIX - 0 ft / 0 m -5.51667˚ 132.39000˚ 1024 nm 7199 nm 151° / 151° -
O YBMA APT - 0 ft / 0 m -20.65894˚ 139.48442˚ 999 nm 8198 nm 156° / 155° -

Altitude Profile

Advertisement - Login to hide

Weather


0- 5 10 15 20 25 30 35+ Temperature / ° C

Clouds and Precipitation
Forecast for 2017-12-14 18:00 UTC. Updated 9 minutes ago

Ground ~20,000 ft ~40,000 ft Winds

EGLL

Details ICAO EGLL (LHR)
Name London Heathrow
Region United Kingdom
Timezone Europe/London (UTC+0.0)
Stats Elevation 83 ft / 25 m (AMSL)
Location 51.471218° -0.460978°
Runways 2
Magnetic Variation 0.560° W

METAR

EGLL 141650Z AUTO 24009KT 9999 NCD 04/01 Q0989 NOSIG

Decode

TAF

TAF EGLL 141101Z 1412/1518 23012KT 9999 SCT040 PROB30 TEMPO 1412/1415 25015G25KT 8000 - BECMG 1418/1421 BKN010 TEMPO 1503/1511 7000 SHRA BKN008 BECMG 1509/1512 33012KT PROB30 TEMPO 1512/1517 32015G25KT BECMG 1515/1518 BKN015

Decode

Departure Runways

ID Width Length Bearing (true) Bearing (mag) Surface Threshold Offset Overrun Length
09L 164 ft / 50 m 12,811 ft / 3,905 m 89.64° 90.20° Asphalt 1,004 ft / 306 m 0 ft / 0 m
09R 164 ft / 50 m 12,019 ft / 3,663 m 89.67° 90.23° Asphalt 1,007 ft / 307 m 0 ft / 0 m
27L 164 ft / 50 m 12,019 ft / 3,663 m 269.71° 270.27° Asphalt 0 ft / 0 m 69 ft / 21 m
27R 164 ft / 50 m 12,811 ft / 3,905 m 269.69° 270.25° Asphalt 0 ft / 0 m 69 ft / 21 m

YBMA

Details ICAO YBMA (ISA)
Name Mount Isa
Region Australia
Timezone Australia/Brisbane (UTC+10.0)
Stats Elevation 1,121 ft / 342 m (AMSL)
Location -20.666369° 139.488443°
Runways 1
Magnetic Variation 5.692° E

METAR

YBMA 141700Z AUTO 27003KT 9999 // NCD 27/13 Q1006

Decode

TAF

TAF AMD TAF AMD YBMA 140728Z 1407/1418 VRB05KT 9999 SCT045

Decode

Destination Runways

ID Width Length Bearing (true) Bearing (mag) Surface Threshold Offset Overrun Length
16 148 ft / 45 m 8,859 ft / 2,700 m 167.80° 162.11° Asphalt 210 ft / 64 m 79 ft / 24 m
34 148 ft / 45 m 8,859 ft / 2,700 m 347.80° 342.11° Asphalt 213 ft / 65 m 49 ft / 15 m

Popular Alternatives